createdAt,value
2018-02-14T00:00:30.780Z,83.30
2018-02-14T00:01:36.960Z,83.75
2018-02-14T00:02:43.193Z,83.40
2018-02-14T00:03:49.167Z,83.23
2018-02-14T00:04:55.395Z,83.16
2018-02-14T00:06:01.598Z,83.26
2018-02-14T00:07:08.734Z,83.25
2018-02-14T00:08:14.951Z,83.02
2018-02-14T00:09:21.144Z,83.37
2018-02-14T00:10:27.424Z,83.59
2018-02-14T00:11:33.572Z,83.55
2018-02-14T00:12:39.777Z,83.40
2018-02-14T00:13:46.043Z,83.05
2018-02-14T00:14:52.274Z,83.00
2018-02-14T00:15:58.466Z,82.99
2018-02-14T00:17:04.684Z,83.25
2018-02-14T00:18:14.169Z,83.21
2018-02-14T00:19:20.313Z,83.26
2018-02-14T00:20:26.513Z,83.34
2018-02-14T00:21:32.701Z,83.17
2018-02-14T00:22:38.943Z,83.29
2018-02-14T00:23:45.146Z,83.43
2018-02-14T00:24:51.350Z,83.65
2018-02-14T00:25:57.516Z,84.06
2018-02-14T00:27:04.625Z,84.09
2018-02-14T00:28:10.800Z,83.86
2018-02-14T00:29:17.101Z,83.88
2018-02-14T00:30:23.270Z,83.35
2018-02-14T00:31:29.466Z,83.58
2018-02-14T00:32:35.435Z,84.05
2018-02-14T00:33:41.585Z,84.15
2018-02-14T00:34:47.767Z,84.05
2018-02-14T00:35:53.897Z,83.68
2018-02-14T00:37:00.417Z,83.95
2018-02-14T00:38:07.354Z,83.87
2018-02-14T00:39:13.560Z,83.96
2018-02-14T00:40:19.796Z,84.02
2018-02-14T00:41:25.978Z,84.21
2018-02-14T00:42:32.166Z,84.17
2018-02-14T00:43:38.356Z,84.31
2018-02-14T00:44:44.555Z,84.08
2018-02-14T00:45:50.760Z,83.80
2018-02-14T00:46:57.041Z,83.48
2018-02-14T00:48:03.174Z,83.44
2018-02-14T00:49:09.364Z,83.55
2018-02-14T00:50:15.581Z,83.47
2018-02-14T00:51:21.555Z,83.71
2018-02-14T00:52:31.666Z,83.57
2018-02-14T00:53:37.839Z,83.48
2018-02-14T00:54:44.280Z,83.79
2018-02-14T00:55:51.829Z,84.11
2018-02-14T00:56:58.011Z,84.80
2018-02-14T00:58:04.237Z,84.85
2018-02-14T00:59:10.397Z,84.78
2018-02-14T01:00:17.285Z,84.59
2018-02-14T01:01:24.714Z,84.55
2018-02-14T01:02:33.992Z,84.58
2018-02-14T01:03:40.172Z,84.42
2018-02-14T01:04:46.044Z,84.20
2018-02-14T01:05:53.674Z,84.31
2018-02-14T01:07:01.749Z,84.32
2018-02-14T01:08:07.942Z,84.29
2018-02-14T01:09:15.086Z,84.14
2018-02-14T01:10:21.345Z,84.39
2018-02-14T01:11:27.484Z,84.24
2018-02-14T01:12:33.796Z,84.36
2018-02-14T01:13:39.975Z,84.61
2018-02-14T01:14:46.146Z,84.80
2018-02-14T01:15:52.292Z,84.82
2018-02-14T01:16:58.428Z,84.79
2018-02-14T01:18:04.373Z,85.21
2018-02-14T01:19:16.255Z,85.42
2018-02-14T01:20:27.908Z,85.30
2018-02-14T01:21:33.996Z,85.18
2018-02-14T01:22:40.249Z,85.03
2018-02-14T01:23:46.477Z,84.71
2018-02-14T01:24:52.649Z,84.47
2018-02-14T01:25:58.848Z,84.35
2018-02-14T01:27:04.781Z,84.23
2018-02-14T01:28:11.046Z,84.12
2018-02-14T01:29:17.225Z,83.89
2018-02-14T01:30:23.439Z,84.00
2018-02-14T01:31:29.630Z,84.17
2018-02-14T01:32:35.884Z,83.89
2018-02-14T01:33:42.138Z,83.97
2018-02-14T01:34:48.336Z,84.12
2018-02-14T01:35:54.495Z,84.25
2018-02-14T01:37:00.721Z,84.34
2018-02-14T01:38:06.929Z,84.23
2018-02-14T01:39:13.117Z,84.41
2018-02-14T01:40:19.319Z,84.76
2018-02-14T01:41:25.178Z,85.14
2018-02-14T01:42:31.414Z,84.96
2018-02-14T01:43:37.347Z,84.80
2018-02-14T01:44:43.514Z,84.82
2018-02-14T01:45:49.392Z,84.87
2018-02-14T01:46:55.636Z,84.96
2018-02-14T01:48:01.858Z,84.86
2018-02-14T01:49:08.056Z,84.88
2018-02-14T01:50:18.111Z,84.80
2018-02-14T01:51:23.983Z,84.62
2018-02-14T01:52:29.931Z,84.56
2018-02-14T01:53:35.855Z,84.66
2018-02-14T01:54:42.041Z,85.16
2018-02-14T01:55:48.210Z,85.48
2018-02-14T01:56:54.405Z,85.35
2018-02-14T01:58:00.589Z,85.24
2018-02-14T01:59:06.754Z,85.28
2018-02-14T02:00:12.614Z,85.23
2018-02-14T02:01:18.491Z,85.17
2018-02-14T02:02:24.689Z,85.07
2018-02-14T02:03:30.900Z,85.00
2018-02-14T02:04:37.130Z,85.06
2018-02-14T02:05:43.316Z,85.06
2018-02-14T02:06:49.496Z,84.83
2018-02-14T02:07:55.640Z,84.82
2018-02-14T02:10:14.181Z,85.26
2018-02-14T02:11:20.118Z,85.32
2018-02-14T02:12:26.243Z,85.36
2018-02-14T02:13:32.403Z,85.39
2018-02-14T02:14:38.678Z,85.40
2018-02-14T02:15:44.844Z,85.43
2018-02-14T02:16:50.982Z,85.59
2018-02-14T02:17:57.087Z,85.64
2018-02-14T02:19:02.991Z,85.44
2018-02-14T02:20:09.097Z,85.21
2018-02-14T02:21:15.270Z,85.07
2018-02-14T02:22:21.646Z,84.78
2018-02-14T02:23:27.806Z,84.93
2018-02-14T02:24:33.992Z,85.11
2018-02-14T02:25:40.396Z,85.13
2018-02-14T02:26:46.581Z,85.71
2018-02-14T02:27:52.591Z,85.52
2018-02-14T02:28:58.767Z,85.59
2018-02-14T02:30:04.271Z,85.38
2018-02-14T02:31:10.441Z,85.20
2018-02-14T02:32:16.878Z,85.17
2018-02-14T02:33:23.100Z,85.13
2018-02-14T02:34:29.495Z,85.17
2018-02-14T02:35:35.675Z,84.97
2018-02-14T02:36:41.858Z,85.16
2018-02-14T02:37:48.070Z,84.92
2018-02-14T02:38:54.224Z,85.02
2018-02-14T02:40:11.248Z,84.70
2018-02-14T02:41:17.171Z,84.54
2018-02-14T02:42:23.385Z,84.56
2018-02-14T02:43:29.598Z,84.55
2018-02-14T02:44:35.773Z,84.57
2018-02-14T02:45:41.973Z,84.51
2018-02-14T02:46:48.187Z,84.83
2018-02-14T02:47:54.392Z,84.58
2018-02-14T02:49:00.569Z,84.84
2018-02-14T02:50:06.779Z,84.67
2018-02-14T02:51:13.067Z,84.96
2018-02-14T02:52:18.972Z,84.82
2018-02-14T02:53:24.865Z,85.01
2018-02-14T02:54:31.203Z,85.00
2018-02-14T02:55:37.378Z,84.97
2018-02-14T02:56:43.545Z,84.99
2018-02-14T02:57:49.724Z,84.73
2018-02-14T02:58:55.950Z,85.07
2018-02-14T03:00:01.908Z,85.32
2018-02-14T03:01:07.763Z,85.26
2018-02-14T03:02:13.914Z,85.13
2018-02-14T03:03:20.072Z,85.05
2018-02-14T03:04:31.348Z,84.98
2018-02-14T03:05:37.557Z,84.77
2018-02-14T03:06:48.491Z,85.24
2018-02-14T03:07:54.664Z,85.83
2018-02-14T03:09:00.557Z,85.86
2018-02-14T03:10:06.473Z,85.46
2018-02-14T03:11:13.013Z,85.22
2018-02-14T03:12:20.282Z,85.29
2018-02-14T03:13:26.492Z,84.89
2018-02-14T03:14:32.684Z,84.89
2018-02-14T03:15:38.914Z,84.74
2018-02-14T03:16:45.668Z,84.57
2018-02-14T03:17:51.815Z,84.72
2018-02-14T03:18:57.767Z,84.79
2018-02-14T03:20:03.649Z,84.90
2018-02-14T03:21:09.818Z,85.00
2018-02-14T03:22:16.024Z,85.24
2018-02-14T03:23:22.241Z,85.10
2018-02-14T03:24:28.452Z,85.04
2018-02-14T03:25:34.690Z,85.36
2018-02-14T03:26:40.839Z,85.59
2018-02-14T03:27:47.418Z,85.78
2018-02-14T03:28:53.618Z,85.96
2018-02-14T03:29:59.831Z,86.18
2018-02-14T03:31:06.040Z,86.13
2018-02-14T03:32:12.229Z,85.88
2018-02-14T03:33:18.450Z,85.93
2018-02-14T03:34:24.469Z,85.84
2018-02-14T03:35:30.605Z,85.66
2018-02-14T03:36:36.496Z,85.58
2018-02-14T03:37:42.679Z,85.67
2018-02-14T03:38:48.635Z,85.34
2018-02-14T03:39:54.839Z,85.32
2018-02-14T03:41:06.270Z,85.12
2018-02-14T03:42:12.436Z,85.45
2018-02-14T03:43:18.440Z,85.83
2018-02-14T03:44:24.673Z,86.08
2018-02-14T03:45:31.236Z,85.94
2018-02-14T03:46:37.453Z,85.72
2018-02-14T03:47:43.694Z,85.66
2018-02-14T03:48:49.948Z,85.61
2018-02-14T03:49:55.828Z,85.38
2018-02-14T03:51:03.600Z,85.38
2018-02-14T03:52:09.793Z,85.30
2018-02-14T03:53:15.991Z,85.23
2018-02-14T03:54:21.843Z,85.18
2018-02-14T03:55:27.974Z,85.16
2018-02-14T03:56:33.851Z,85.33
2018-02-14T03:57:39.847Z,85.41
2018-02-14T03:58:46.136Z,85.23
2018-02-14T03:59:52.180Z,85.50
2018-02-14T04:00:58.376Z,85.64
2018-02-14T04:02:04.816Z,85.79
2018-02-14T04:03:11.132Z,85.49
2018-02-14T04:04:17.506Z,85.41
2018-02-14T04:05:23.716Z,85.42
2018-02-14T04:06:29.950Z,85.38
2018-02-14T04:07:36.269Z,85.65
2018-02-14T04:08:42.505Z,85.87
2018-02-14T04:09:48.663Z,85.83
2018-02-14T04:10:54.919Z,86.28
2018-02-14T04:12:02.063Z,85.98
2018-02-14T04:13:09.179Z,85.85
2018-02-14T04:14:15.396Z,85.58
2018-02-14T04:15:21.855Z,85.39
2018-02-14T04:16:28.072Z,85.15
2018-02-14T04:17:34.235Z,85.13
2018-02-14T04:18:40.422Z,85.21
2018-02-14T04:19:46.654Z,85.34
2018-02-14T04:20:53.216Z,85.68
2018-02-14T04:21:59.568Z,86.21
2018-02-14T04:23:05.884Z,85.86
2018-02-14T04:24:11.890Z,85.65
2018-02-14T04:25:18.726Z,85.59
2018-02-14T04:26:25.327Z,85.52
2018-02-14T04:27:32.360Z,85.58
2018-02-14T04:28:39.084Z,85.48
2018-02-14T04:29:46.115Z,85.62
2018-02-14T04:30:55.452Z,85.79
2018-02-14T04:32:01.802Z,86.16
2018-02-14T04:33:08.299Z,86.24
2018-02-14T04:34:14.534Z,86.03
2018-02-14T04:35:20.679Z,86.03
2018-02-14T04:36:27.144Z,86.15
2018-02-14T04:37:34.141Z,86.20
2018-02-14T04:38:41.307Z,86.07
2018-02-14T04:39:48.056Z,86.19
2018-02-14T04:40:56.139Z,86.44
2018-02-14T04:42:03.631Z,86.50
2018-02-14T04:43:11.159Z,86.21
2018-02-14T04:44:18.559Z,86.17
2018-02-14T04:45:26.167Z,86.08
2018-02-14T04:46:34.032Z,85.97
2018-02-14T04:47:40.927Z,85.96
2018-02-14T04:48:48.137Z,86.08
2018-02-14T04:49:55.534Z,86.21
2018-02-14T04:51:02.614Z,86.66
2018-02-14T04:52:09.752Z,86.73
2018-02-14T04:53:16.651Z,86.37
2018-02-14T04:54:23.882Z,86.19
2018-02-14T04:55:32.937Z,86.00
2018-02-14T04:56:40.620Z,85.75
2018-02-14T04:57:47.645Z,85.48
2018-02-14T04:58:55.262Z,85.28
2018-02-14T05:00:10.546Z,85.30
2018-02-14T05:01:18.440Z,85.67
2018-02-14T05:02:28.568Z,86.23
2018-02-14T05:03:37.438Z,86.24
2018-02-14T05:04:44.676Z,86.16
2018-02-14T05:05:51.968Z,85.49
2018-02-14T05:07:00.279Z,85.12
2018-02-14T05:08:08.196Z,85.09
2018-02-14T05:09:16.288Z,85.31
2018-02-14T05:10:24.418Z,85.53
2018-02-14T05:11:31.894Z,85.74
2018-02-14T05:12:40.006Z,85.61
2018-02-14T05:13:47.077Z,85.61
2018-02-14T05:14:54.335Z,85.47
2018-02-14T05:16:01.488Z,85.41
2018-02-14T05:17:08.714Z,85.32
2018-02-14T05:18:15.908Z,85.52
2018-02-14T05:19:23.387Z,85.56
2018-02-14T05:20:30.685Z,85.31
2018-02-14T05:21:38.463Z,85.42
2018-02-14T05:22:45.429Z,85.36
2018-02-14T05:23:52.327Z,85.27
2018-02-14T05:25:00.369Z,84.95
2018-02-14T05:26:07.623Z,85.07
2018-02-14T05:27:15.827Z,85.59
2018-02-14T05:28:24.515Z,85.88
2018-02-14T05:29:31.673Z,85.91
2018-02-14T05:30:38.687Z,85.64
2018-02-14T05:31:45.800Z,85.58
2018-02-14T05:32:54.667Z,85.92
2018-02-14T05:34:04.463Z,85.91
2018-02-14T05:35:12.081Z,85.81
2018-02-14T05:36:19.012Z,85.91
2018-02-14T05:37:26.447Z,86.00
2018-02-14T05:38:34.897Z,86.32
2018-02-14T05:39:42.112Z,86.32
2018-02-14T05:40:49.805Z,86.39
2018-02-14T05:41:59.530Z,86.47
2018-02-14T05:43:08.828Z,86.46
2018-02-14T05:44:15.634Z,86.66
2018-02-14T05:45:23.371Z,86.61
2018-02-14T05:46:30.586Z,86.65
2018-02-14T05:47:38.357Z,86.43
2018-02-14T05:48:46.327Z,86.20
2018-02-14T05:49:53.445Z,86.00
2018-02-14T05:51:00.833Z,85.88
2018-02-14T05:52:07.942Z,86.08
2018-02-14T05:53:15.363Z,86.15
2018-02-14T05:54:22.997Z,86.15
2018-02-14T05:55:30.514Z,85.79
2018-02-14T05:56:38.019Z,85.36
2018-02-14T05:57:44.211Z,85.26
2018-02-14T05:58:50.402Z,85.61
2018-02-14T05:59:56.618Z,85.33
2018-02-14T06:01:02.987Z,84.64
2018-02-14T06:02:09.126Z,84.51
2018-02-14T06:03:15.376Z,84.45
2018-02-14T06:04:21.604Z,84.47
2018-02-14T06:05:27.819Z,84.69
2018-02-14T06:06:33.542Z,85.12
2018-02-14T06:07:39.703Z,85.36
2018-02-14T06:08:45.934Z,85.37
2018-02-14T06:09:52.145Z,85.20
2018-02-14T06:10:58.335Z,85.27
2018-02-14T06:12:04.647Z,85.37
2018-02-14T06:13:10.877Z,85.66
2018-02-14T06:14:17.149Z,85.74
2018-02-14T06:15:23.584Z,85.87
2018-02-14T06:16:29.795Z,85.43
2018-02-14T06:17:35.975Z,85.13
2018-02-14T06:18:42.202Z,85.11
2018-02-14T06:19:48.371Z,85.60
2018-02-14T06:20:54.556Z,85.92
2018-02-14T06:22:00.732Z,86.04
2018-02-14T06:23:06.932Z,86.10
2018-02-14T06:24:13.116Z,85.90
2018-02-14T06:25:19.312Z,85.75
2018-02-14T06:26:25.519Z,85.49
2018-02-14T06:27:31.912Z,85.36
2018-02-14T06:28:38.106Z,85.43
2018-02-14T06:29:44.350Z,85.30
2018-02-14T06:30:50.512Z,84.99
2018-02-14T06:32:01.791Z,84.87
2018-02-14T06:33:07.980Z,85.04
2018-02-14T06:34:14.197Z,85.03
2018-02-14T06:35:20.360Z,85.00
2018-02-14T06:36:26.496Z,84.79
2018-02-14T06:37:32.699Z,84.70
2018-02-14T06:38:38.963Z,84.53
2018-02-14T06:39:45.166Z,84.31
2018-02-14T06:40:51.387Z,84.67
2018-02-14T06:41:57.377Z,85.02
2018-02-14T06:43:03.333Z,85.24
2018-02-14T06:44:09.508Z,85.31
2018-02-14T06:45:15.676Z,85.38
2018-02-14T06:46:26.929Z,85.36
2018-02-14T06:47:33.100Z,85.21
2018-02-14T06:48:39.292Z,85.06
2018-02-14T06:49:45.504Z,84.92
2018-02-14T06:50:52.071Z,84.76
2018-02-14T06:51:58.961Z,84.85
2018-02-14T06:53:05.288Z,85.03
2018-02-14T06:54:11.928Z,84.95
2018-02-14T06:55:18.087Z,84.25
2018-02-14T06:56:24.222Z,84.02
2018-02-14T06:57:50.344Z,84.15
2018-02-14T06:58:56.461Z,84.28
2018-02-14T07:00:03.712Z,84.41
2018-02-14T07:01:09.960Z,84.75
2018-02-14T07:02:17.265Z,84.53
2018-02-14T07:03:23.472Z,84.62
2018-02-14T07:04:29.687Z,84.58
2018-02-14T07:05:35.924Z,84.49
2018-02-14T07:06:42.080Z,84.21
2018-02-14T07:07:48.237Z,84.68
2018-02-14T07:08:54.056Z,84.58
2018-02-14T07:10:00.383Z,84.64
2018-02-14T07:11:06.656Z,84.79
2018-02-14T07:12:12.592Z,84.96
2018-02-14T07:13:18.790Z,85.17
2018-02-14T07:14:24.968Z,85.16
2018-02-14T07:15:31.149Z,84.95
2018-02-14T07:16:37.447Z,85.14
2018-02-14T07:17:43.631Z,84.88
2018-02-14T07:18:49.880Z,85.08
2018-02-14T07:19:56.163Z,85.27
2018-02-14T07:21:02.308Z,85.42
2018-02-14T07:22:08.534Z,85.22
2018-02-14T07:23:14.769Z,85.15
2018-02-14T07:24:21.014Z,85.37
2018-02-14T07:25:27.168Z,85.75
2018-02-14T07:26:33.415Z,85.66
2018-02-14T07:27:39.618Z,85.78
2018-02-14T07:28:45.856Z,85.86
2018-02-14T07:29:52.005Z,86.28
2018-02-14T07:30:58.324Z,86.27
2018-02-14T07:32:04.550Z,85.98
2018-02-14T07:33:18.235Z,85.87
2018-02-14T07:34:26.967Z,86.02
2018-02-14T07:35:33.260Z,86.05
2018-02-14T07:36:39.476Z,86.13
2018-02-14T07:37:54.024Z,86.44
2018-02-14T07:38:59.860Z,86.31
2018-02-14T07:40:07.251Z,86.21
2018-02-14T07:41:21.248Z,85.57
2018-02-14T07:42:27.485Z,85.28
2018-02-14T07:43:33.691Z,84.79
2018-02-14T07:44:43.064Z,84.04
2018-02-14T07:45:48.871Z,83.66
2018-02-14T07:46:55.082Z,83.56
2018-02-14T07:48:01.270Z,83.62
2018-02-14T07:49:07.413Z,84.70
2018-02-14T07:50:13.205Z,85.14
2018-02-14T07:51:19.364Z,84.93
2018-02-14T07:52:25.573Z,84.81
2018-02-14T07:53:31.732Z,85.13
2018-02-14T07:54:37.900Z,85.53
2018-02-14T07:55:44.014Z,85.75
2018-02-14T07:56:50.216Z,85.88
2018-02-14T07:57:56.416Z,86.13
2018-02-14T07:59:02.672Z,85.81
2018-02-14T08:00:08.852Z,85.30
2018-02-14T08:01:14.991Z,85.05
2018-02-14T08:02:21.523Z,84.75
2018-02-14T08:03:27.659Z,84.61
2018-02-14T08:04:34.036Z,84.12
2018-02-14T08:05:40.151Z,84.00
2018-02-14T08:06:46.336Z,84.30
2018-02-14T08:07:52.260Z,84.17
2018-02-14T08:08:58.154Z,83.67
2018-02-14T08:10:04.411Z,83.39
2018-02-14T08:11:10.570Z,83.47
2018-02-14T08:12:19.592Z,83.99
2018-02-14T08:13:25.541Z,84.60
2018-02-14T08:14:31.742Z,85.75
2018-02-14T08:15:37.957Z,85.94
2018-02-14T08:16:44.227Z,86.00
2018-02-14T08:17:50.403Z,85.49
2018-02-14T08:18:56.596Z,84.97
2018-02-14T08:20:02.752Z,85.44
2018-02-14T08:21:08.650Z,85.21
2018-02-14T08:22:14.877Z,84.39
2018-02-14T08:23:21.020Z,84.65
2018-02-14T08:24:27.163Z,84.36
2018-02-14T08:25:39.153Z,83.79
2018-02-14T08:26:50.036Z,83.47
2018-02-14T08:27:56.242Z,84.84
2018-02-14T08:29:02.403Z,85.64
2018-02-14T08:30:08.583Z,86.12
2018-02-14T08:31:14.484Z,86.25
2018-02-14T08:32:20.676Z,86.06
2018-02-14T08:33:26.853Z,86.88
2018-02-14T08:34:33.206Z,87.67
2018-02-14T08:35:39.433Z,87.68
2018-02-14T08:36:45.574Z,87.10
2018-02-14T08:37:52.057Z,87.59
2018-02-14T08:38:58.223Z,87.30
2018-02-14T08:40:04.090Z,87.76
2018-02-14T08:41:10.269Z,88.26
2018-02-14T08:42:16.467Z,88.52
2018-02-14T08:43:22.682Z,87.52
2018-02-14T08:44:28.825Z,87.42
2018-02-14T08:45:34.990Z,87.99
2018-02-14T08:46:40.886Z,87.69
2018-02-14T08:47:47.062Z,87.16
2018-02-14T08:48:53.293Z,87.25
2018-02-14T08:49:59.609Z,87.11
2018-02-14T08:51:05.799Z,86.74
2018-02-14T08:52:11.964Z,85.90
2018-02-14T08:53:18.172Z,85.26
2018-02-14T08:54:24.648Z,85.09
2018-02-14T08:55:30.844Z,86.21
2018-02-14T08:56:37.046Z,86.29
2018-02-14T08:57:43.211Z,86.22
2018-02-14T08:58:49.415Z,86.33
2018-02-14T08:59:55.574Z,86.55
2018-02-14T09:01:02.932Z,87.05
2018-02-14T09:02:14.193Z,87.29
2018-02-14T09:03:20.340Z,86.75
2018-02-14T09:04:26.524Z,85.95
2018-02-14T09:05:32.724Z,85.66
2018-02-14T09:06:38.893Z,85.81
2018-02-14T09:07:48.001Z,85.02
2018-02-14T09:08:54.159Z,84.39
2018-02-14T09:10:00.284Z,83.84
2018-02-14T09:11:06.489Z,82.76
2018-02-14T09:12:12.694Z,82.30
2018-02-14T09:13:19.908Z,81.61
2018-02-14T09:14:26.116Z,82.00
2018-02-14T09:15:32.308Z,82.23
2018-02-14T09:16:38.279Z,81.93
2018-02-14T09:17:44.462Z,81.10
2018-02-14T09:18:50.592Z,80.52
2018-02-14T09:19:56.813Z,79.98
2018-02-14T09:21:03.048Z,79.67
2018-02-14T09:22:09.936Z,79.47
2018-02-14T09:23:16.157Z,78.94
2018-02-14T09:24:22.385Z,80.03
2018-02-14T09:25:28.514Z,80.00
2018-02-14T09:26:34.656Z,79.68
2018-02-14T09:27:40.776Z,79.17
2018-02-14T09:28:46.934Z,78.99
2018-02-14T09:29:53.136Z,78.68
2018-02-14T09:30:59.259Z,78.46
2018-02-14T09:32:05.439Z,79.84
2018-02-14T09:33:11.776Z,80.22
2018-02-14T09:34:18.299Z,79.86
2018-02-14T09:35:24.509Z,79.35
2018-02-14T09:36:30.639Z,79.19
2018-02-14T09:37:36.728Z,78.93
2018-02-14T09:38:42.616Z,78.64
2018-02-14T09:39:48.756Z,78.77
2018-02-14T09:40:54.942Z,78.88
2018-02-14T09:42:01.139Z,78.02
2018-02-14T09:43:07.356Z,77.68
2018-02-14T09:44:13.553Z,77.13
2018-02-14T09:45:19.724Z,76.89
2018-02-14T09:46:25.880Z,76.08
2018-02-14T09:47:32.067Z,76.66
2018-02-14T09:48:38.032Z,76.30
2018-02-14T09:49:44.113Z,76.93
2018-02-14T09:50:50.257Z,76.65
2018-02-14T09:51:56.439Z,76.30
2018-02-14T09:53:02.386Z,75.96
2018-02-14T09:54:08.894Z,75.55
2018-02-14T09:55:15.068Z,75.16
2018-02-14T09:56:21.252Z,75.53
2018-02-14T09:57:27.380Z,75.30
2018-02-14T09:58:33.597Z,75.18
2018-02-14T09:59:46.062Z,74.64
2018-02-14T10:00:52.223Z,75.55
2018-02-14T10:01:58.426Z,75.86
2018-02-14T10:03:04.595Z,75.70
2018-02-14T10:04:10.766Z,75.27
2018-02-14T10:05:16.958Z,75.17
2018-02-14T10:06:23.560Z,75.07
2018-02-14T10:07:29.860Z,74.71
2018-02-14T10:08:35.985Z,74.09
2018-02-14T10:09:42.129Z,73.46
2018-02-14T10:10:48.287Z,74.51
2018-02-14T10:11:54.403Z,74.19
2018-02-14T10:13:00.582Z,74.08
2018-02-14T10:14:06.768Z,74.06
2018-02-14T10:15:12.890Z,73.35
2018-02-14T10:16:19.016Z,72.64
2018-02-14T10:17:25.185Z,72.63
2018-02-14T10:18:31.343Z,72.39
2018-02-14T10:19:37.467Z,72.10
2018-02-14T10:20:43.648Z,71.86
2018-02-14T10:21:49.845Z,71.36
2018-02-14T10:22:56.388Z,70.71
2018-02-14T10:24:03.057Z,70.16
2018-02-14T10:25:09.215Z,69.83
2018-02-14T10:26:15.440Z,70.50
2018-02-14T10:27:21.692Z,71.13
2018-02-14T10:28:27.813Z,71.22
2018-02-14T10:29:34.344Z,70.81
2018-02-14T10:30:40.468Z,70.42
2018-02-14T10:31:46.651Z,69.97
2018-02-14T10:32:52.785Z,69.73
2018-02-14T10:33:58.935Z,69.79
2018-02-14T10:35:05.110Z,69.97
2018-02-14T10:36:11.433Z,69.69
2018-02-14T10:37:17.586Z,70.14
2018-02-14T10:38:23.758Z,70.05
2018-02-14T10:39:29.936Z,69.97
2018-02-14T10:40:36.121Z,70.45
2018-02-14T10:41:42.283Z,70.33
2018-02-14T10:42:48.470Z,70.29
2018-02-14T10:43:54.684Z,70.05
2018-02-14T10:45:00.908Z,69.71
2018-02-14T10:46:08.018Z,69.31
2018-02-14T10:47:14.217Z,69.17
2018-02-14T10:48:20.024Z,70.12
2018-02-14T10:49:26.229Z,69.91
2018-02-14T10:50:32.604Z,69.58
2018-02-14T10:51:38.793Z,69.59
2018-02-14T10:52:45.340Z,69.60
2018-02-14T10:53:51.529Z,69.31
2018-02-14T10:54:57.678Z,69.27
2018-02-14T10:56:03.832Z,69.48
2018-02-14T10:57:10.109Z,69.15
2018-02-14T10:58:16.406Z,68.75
2018-02-14T10:59:22.593Z,67.78
2018-02-14T11:00:34.291Z,67.95
2018-02-14T11:01:45.879Z,67.91
2018-02-14T11:02:57.507Z,68.47
2018-02-14T11:04:09.186Z,68.13
2018-02-14T11:05:20.831Z,67.93
2018-02-14T11:06:32.436Z,67.68
2018-02-14T11:07:38.583Z,67.33
2018-02-14T11:08:44.826Z,67.91
2018-02-14T11:09:50.967Z,68.07
2018-02-14T11:10:57.148Z,67.47
2018-02-14T11:12:03.284Z,67.55
2018-02-14T11:13:09.456Z,67.74
2018-02-14T11:14:15.623Z,67.60
2018-02-14T11:15:21.825Z,67.77
2018-02-14T11:16:32.855Z,67.70
2018-02-14T11:17:39.043Z,67.14
2018-02-14T11:18:45.185Z,66.86
2018-02-14T11:19:51.293Z,65.99
2018-02-14T11:20:57.508Z,66.65
2018-02-14T11:22:03.941Z,66.43
2018-02-14T11:23:10.059Z,67.48
2018-02-14T11:24:16.278Z,68.28
2018-02-14T11:25:22.419Z,68.42
2018-02-14T11:26:28.637Z,68.60
2018-02-14T11:27:34.956Z,68.42
2018-02-14T11:28:41.432Z,68.30
2018-02-14T11:29:47.644Z,67.81
2018-02-14T11:30:53.815Z,67.01
2018-02-14T11:31:59.969Z,66.83
2018-02-14T11:33:06.120Z,66.82
2018-02-14T11:34:12.273Z,66.41
2018-02-14T11:35:18.461Z,66.22
2018-02-14T11:36:24.674Z,66.93
2018-02-14T11:37:30.814Z,66.78
2018-02-14T11:38:36.777Z,66.22
2018-02-14T11:39:42.941Z,66.14
2018-02-14T11:40:49.146Z,66.44
2018-02-14T11:41:55.321Z,66.54
2018-02-14T11:43:01.483Z,67.32
2018-02-14T11:44:07.686Z,67.22
2018-02-14T11:45:13.828Z,67.10
2018-02-14T11:46:20.017Z,67.51
2018-02-14T11:47:26.174Z,67.33
2018-02-14T11:48:32.394Z,66.40
2018-02-14T11:49:38.574Z,65.80
2018-02-14T11:50:44.752Z,65.97
2018-02-14T11:51:50.955Z,65.72
2018-02-14T11:52:57.123Z,65.59
2018-02-14T11:54:03.304Z,66.45
2018-02-14T11:55:09.479Z,66.87
2018-02-14T11:56:15.662Z,66.67
2018-02-14T11:57:21.849Z,66.58
2018-02-14T11:58:28.016Z,66.32
2018-02-14T11:59:34.228Z,65.82
2018-02-14T12:00:40.411Z,65.33
2018-02-14T12:01:46.617Z,65.17
2018-02-14T12:02:52.818Z,64.63
2018-02-14T12:03:59.026Z,64.92
2018-02-14T12:05:05.391Z,65.35
2018-02-14T12:06:11.595Z,64.74
2018-02-14T12:07:17.838Z,64.03
2018-02-14T12:08:24.015Z,64.39
2018-02-14T12:09:30.432Z,63.85
2018-02-14T12:10:36.595Z,63.33
2018-02-14T12:11:42.708Z,63.41
2018-02-14T12:12:48.832Z,63.68
2018-02-14T12:13:55.295Z,63.71
2018-02-14T12:15:05.474Z,63.61
2018-02-14T12:16:11.608Z,63.36
2018-02-14T12:17:17.848Z,63.09
2018-02-14T12:18:24.000Z,63.32
2018-02-14T12:19:30.173Z,63.43
2018-02-14T12:20:36.371Z,63.54
2018-02-14T12:21:42.513Z,63.30
2018-02-14T12:22:48.653Z,63.34
2018-02-14T12:23:54.783Z,62.83
2018-02-14T12:25:00.983Z,62.73
2018-02-14T12:26:07.301Z,62.71
2018-02-14T12:27:13.491Z,62.23
2018-02-14T12:28:19.689Z,62.92
2018-02-14T12:29:25.882Z,63.54
2018-02-14T12:30:32.052Z,63.97
2018-02-14T12:31:38.857Z,63.95
2018-02-14T12:32:45.029Z,62.98
2018-02-14T12:33:51.172Z,62.48
2018-02-14T12:34:57.193Z,62.78
2018-02-14T12:36:03.362Z,62.84
2018-02-14T12:37:09.546Z,63.25
2018-02-14T12:38:15.727Z,63.24
2018-02-14T12:39:21.931Z,63.44
2018-02-14T12:40:28.052Z,63.24
2018-02-14T12:41:34.233Z,63.36
2018-02-14T12:42:40.041Z,63.47
2018-02-14T12:43:46.175Z,63.23
2018-02-14T12:44:52.401Z,62.94
2018-02-14T12:45:58.553Z,63.08
2018-02-14T12:47:04.758Z,63.40
2018-02-14T12:48:10.892Z,62.81
2018-02-14T12:49:17.067Z,63.00
2018-02-14T12:50:23.257Z,63.00
2018-02-14T12:51:29.419Z,63.37
2018-02-14T12:52:35.552Z,63.60
2018-02-14T12:53:41.719Z,63.99
2018-02-14T12:54:47.886Z,64.18
2018-02-14T12:55:54.030Z,64.11
2018-02-14T12:57:00.209Z,64.14
2018-02-14T12:58:06.421Z,64.09
2018-02-14T12:59:12.617Z,64.28
2018-02-14T13:00:18.906Z,63.18
2018-02-14T13:01:25.207Z,62.97
2018-02-14T13:02:31.357Z,63.02
2018-02-14T13:03:37.542Z,63.01
2018-02-14T13:04:43.686Z,62.86
2018-02-14T13:05:49.829Z,62.43
2018-02-14T13:06:56.040Z,62.04
2018-02-14T13:08:02.245Z,62.25
2018-02-14T13:09:08.450Z,62.65
2018-02-14T13:10:16.147Z,62.62
2018-02-14T13:11:22.292Z,62.77
2018-02-14T13:12:28.521Z,62.98
2018-02-14T13:13:34.686Z,63.09
2018-02-14T13:14:40.883Z,62.98
2018-02-14T13:15:47.044Z,62.83
2018-02-14T13:16:53.175Z,61.64
2018-02-14T13:17:59.420Z,63.40
2018-02-14T13:19:05.496Z,63.98
2018-02-14T13:20:11.680Z,64.12
2018-02-14T13:21:17.825Z,64.16
2018-02-14T13:22:23.974Z,64.60
2018-02-14T13:23:30.172Z,63.42
2018-02-14T13:24:36.216Z,63.40
2018-02-14T13:25:42.320Z,63.90
2018-02-14T13:26:48.451Z,63.18
2018-02-14T13:27:54.685Z,62.88
2018-02-14T13:29:00.895Z,62.34
2018-02-14T13:30:07.152Z,61.96
2018-02-14T13:31:13.351Z,61.83
2018-02-14T13:32:19.500Z,61.45
2018-02-14T13:33:25.680Z,61.55
2018-02-14T13:34:31.892Z,61.28
2018-02-14T13:35:38.120Z,60.85
2018-02-14T13:36:44.353Z,61.06
2018-02-14T13:37:50.505Z,60.97
2018-02-14T13:38:56.756Z,60.50
2018-02-14T13:40:02.908Z,60.05
2018-02-14T13:41:09.052Z,60.10
2018-02-14T13:42:15.278Z,59.75
2018-02-14T13:43:21.458Z,59.56
2018-02-14T13:44:27.686Z,60.02
2018-02-14T13:45:33.919Z,60.40
2018-02-14T13:46:40.487Z,60.72
2018-02-14T13:47:46.696Z,60.69
2018-02-14T13:48:52.852Z,60.87
2018-02-14T13:49:59.051Z,60.31
2018-02-14T13:51:05.252Z,60.35
2018-02-14T13:52:11.430Z,59.82
2018-02-14T13:53:17.594Z,60.34
2018-02-14T13:54:23.749Z,60.06
2018-02-14T13:55:29.961Z,60.19
2018-02-14T13:56:36.135Z,59.98
2018-02-14T13:57:42.349Z,59.31
2018-02-14T13:58:48.847Z,59.14
2018-02-14T13:59:54.995Z,58.96
2018-02-14T14:01:01.288Z,59.49
2018-02-14T14:02:07.466Z,58.92
2018-02-14T14:03:13.628Z,59.07
2018-02-14T14:04:19.847Z,59.38
2018-02-14T14:05:26.027Z,59.18
2018-02-14T14:06:32.559Z,58.71
2018-02-14T14:07:38.868Z,58.92
2018-02-14T14:08:45.046Z,58.65
2018-02-14T14:09:51.206Z,58.64
2018-02-14T14:10:57.375Z,58.79
2018-02-14T14:12:03.605Z,58.85
2018-02-14T14:13:09.761Z,59.03
2018-02-14T14:14:15.945Z,58.88
2018-02-14T14:15:22.143Z,58.72
2018-02-14T14:16:28.315Z,58.08
2018-02-14T14:17:34.452Z,58.22
2018-02-14T14:18:40.628Z,57.91